Time;durP1;ratioP1;P1;durP2;ratioP2;P2;SDS_P1;SDS_P2;PMS_P1;PMS_P2;Temp;Humidity;BMP_temperature;BMP_pressure;BME280_temperature;BME280_humidity;BME280_pressure;Samples;Min_cycle;Max_cycle;Signal;HPM_P1;HPM_P2
2022/03/21 00:02:14;;;;;;;;;;;;;;;7.32;64.11;101178.94;4996134;28;19971;-64
2022/03/21 00:04:58;;;;;;;;;;;;;;;7.33;64.21;101190.13;4995636;28;19924;-65
2022/03/21 00:07:43;;;;;;;;;;;;;;;7.32;64.36;101186.69;4996003;28;20336;-64
2022/03/21 00:10:27;;;;;;;;;;;;;;;7.31;64.35;101187.50;4996154;28;19925;-64
2022/03/21 00:13:15;;;;;;;;;;;;;;;7.32;64.16;101185.78;4993989;28;19924;-64
2022/03/21 00:15:59;;;;;;;;;;;;;;;7.31;64.43;101194.38;4995701;28;20015;-64
2022/03/21 00:18:43;;;;;;;;;;;;;;;7.29;64.33;101199.44;4995482;28;19933;-64
2022/03/21 00:21:27;;;;;;;;;;;;;;;7.28;64.35;101197.66;4995371;28;19971;-65
2022/03/21 00:24:11;;;;;;;;;;;;;;;7.28;64.37;101195.06;4995184;28;19924;-63
2022/03/21 00:26:56;;;;;;;;;;;;;;;7.28;64.26;101195.06;4995383;28;19940;-64
2022/03/21 00:29:41;;;;;;;;;;;;;;;7.29;64.05;101199.44;4996271;28;19925;-64
2022/03/21 00:32:25;;;;;;;;;;;;;;;7.26;64.43;101196.69;4996116;28;19925;-64
2022/03/21 00:35:10;;;;;;;;;;;;;;;7.25;64.44;101189.75;4995877;28;19933;-64
2022/03/21 00:37:55;;;;;;;;;;;;;;;7.25;64.47;101187.19;4995116;28;19924;-64
2022/03/21 00:40:39;;;;;;;;;;;;;;;7.26;64.00;101196.69;4995539;28;19925;-65
2022/03/21 00:43:23;;;;;;;;;;;;;;;7.26;64.32;101200.97;4995466;28;19925;-64
2022/03/21 00:46:08;;;;;;;;;;;;;;;7.25;64.29;101199.22;4994499;28;19925;-64
2022/03/21 00:48:52;;;;;;;;;;;;;;;7.24;64.31;101206.03;4995116;28;20309;-64
2022/03/21 00:51:36;;;;;;;;;;;;;;;7.22;64.22;101199.97;4995863;28;19928;-64
2022/03/21 00:54:20;;;;;;;;;;;;;;;7.21;64.40;101203.34;4994375;28;19924;-63
2022/03/21 00:57:04;;;;;;;;;;;;;;;7.21;64.11;101200.78;4994940;28;19924;-64
2022/03/21 00:59:47;;;;;;;;;;;;;;;7.21;64.36;101205.03;4994755;28;19967;-64
2022/03/21 01:02:32;;;;;;;;;;;;;;;7.22;64.25;101201.63;4995643;28;19925;-64
2022/03/21 01:05:15;;;;;;;;;;;;;;;7.21;64.39;101193.03;4995128;28;19979;-64
2022/03/21 01:08:02;;;;;;;;;;;;;;;7.21;64.55;101197.28;4994336;28;20391;-64
2022/03/21 01:10:47;;;;;;;;;;;;;;;7.21;64.62;101194.72;4994366;28;20289;-64
2022/03/21 01:13:31;;;;;;;;;;;;;;;7.20;64.34;101191.25;4995425;28;20016;-64
2022/03/21 01:16:15;;;;;;;;;;;;;;;7.20;64.48;101193.84;4994111;28;19968;-64
2022/03/21 01:18:59;;;;;;;;;;;;;;;7.20;64.42;101195.50;4995220;28;19933;-63
2022/03/21 01:21:43;;;;;;;;;;;;;;;7.22;64.56;101202.53;4994806;28;19941;-64
2022/03/21 01:24:27;;;;;;;;;;;;;;;7.22;64.45;101206.78;4994414;28;19940;-65
2022/03/21 01:27:12;;;;;;;;;;;;;;;7.24;64.53;101215.50;4995038;28;19925;-64
2022/03/21 01:29:56;;;;;;;;;;;;;;;7.23;64.45;101206.88;4994816;28;19933;-65
2022/03/21 01:32:42;;;;;;;;;;;;;;;7.24;65.03;101208.63;4995104;28;19925;-64
2022/03/21 01:35:26;;;;;;;;;;;;;;;7.24;64.79;101210.34;4993786;28;20467;-64
2022/03/21 01:38:10;;;;;;;;;;;;;;;7.25;64.68;101210.41;4994494;28;19925;-64
2022/03/21 01:40:55;;;;;;;;;;;;;;;7.23;64.88;101214.63;4994032;28;19925;-64
2022/03/21 01:43:55;;;;;;;;;;;;;;;7.24;65.04;101208.63;4993390;28;20052;-65
2022/03/21 01:46:41;;;;;;;;;;;;;;;7.25;65.02;101205.25;4994322;28;19924;-64
2022/03/21 01:49:26;;;;;;;;;;;;;;;7.25;64.74;101206.94;4993903;28;19925;-64
2022/03/21 01:52:10;;;;;;;;;;;;;;;7.26;64.76;101211.28;4994721;28;19964;-65
2022/03/21 01:58:01;;;;;;;;;;;;;;;7.25;65.19;101212.09;4994323;28;19924;-64
2022/03/21 02:00:46;;;;;;;;;;;;;;;7.24;64.98;101210.34;4993617;28;19968;-64
2022/03/21 02:03:29;;;;;;;;;;;;;;;7.22;65.04;101210.28;4994257;28;19925;-64
2022/03/21 02:06:14;;;;;;;;;;;;;;;7.24;65.12;101207.75;4993172;28;19972;-64
2022/03/21 02:08:58;;;;;;;;;;;;;;;7.22;65.44;101204.22;4994392;28;19964;-64
2022/03/21 02:11:42;;;;;;;;;;;;;;;7.23;65.43;101198.25;4994321;28;20348;-64
2022/03/21 02:14:26;;;;;;;;;;;;;;;7.22;64.99;101196.47;4994347;28;20015;-64
2022/03/21 02:17:10;;;;;;;;;;;;;;;7.22;65.24;101193.91;4993281;28;19925;-65
2022/03/21 02:19:55;;;;;;;;;;;;;;;7.23;64.89;101194.00;4994326;28;19925;-65
2022/03/21 02:22:45;;;;;;;;;;;;;;;7.23;64.95;101199.16;4993834;28;19940;-64
2022/03/21 02:25:34;;;;;;;;;;;;;;;7.24;65.07;101194.88;4994164;28;20415;-64
2022/03/21 02:28:19;;;;;;;;;;;;;;;7.24;65.04;101203.47;4992984;28;19968;-65
2022/03/21 02:31:03;;;;;;;;;;;;;;;7.22;65.36;101204.22;4994094;28;19964;-64
2022/03/21 02:33:48;;;;;;;;;;;;;;;7.22;65.55;101199.97;4993749;28;19929;-64
2022/03/21 02:36:32;;;;;;;;;;;;;;;7.21;65.40;101198.19;4997344;28;20077;-64
2022/03/21 02:39:17;;;;;;;;;;;;;;;7.22;65.34;101191.31;4996940;28;19975;-64
2022/03/21 02:42:01;;;;;;;;;;;;;;;7.21;64.97;101194.72;4998202;28;19964;-64
2022/03/21 02:44:45;;;;;;;;;;;;;;;7.21;65.33;101195.59;4996549;28;19924;-64
2022/03/21 02:47:29;;;;;;;;;;;;;;;7.20;65.34;101193.84;4997873;28;19972;-65
2022/03/21 02:50:16;;;;;;;;;;;;;;;7.19;65.35;101192.06;4997634;28;19933;-64
2022/03/21 02:53:01;;;;;;;;;;;;;;;7.19;65.46;101186.00;4996947;28;19925;-65
2022/03/21 02:55:46;;;;;;;;;;;;;;;7.18;65.46;101187.72;4998065;28;19987;-64
2022/03/21 02:58:29;;;;;;;;;;;;;;;7.20;65.49;101190.34;4997403;28;19925;-64
2022/03/21 03:01:14;;;;;;;;;;;;;;;7.19;65.55;101189.50;4997284;28;19969;-63
2022/03/21 03:03:59;;;;;;;;;;;;;;;7.21;65.39;101194.72;4996815;28;20005;-63
2022/03/21 03:06:43;;;;;;;;;;;;;;;7.19;65.36;101189.50;4997403;28;19925;-64
2022/03/21 03:09:27;;;;;;;;;;;;;;;7.19;65.81;101186.91;4997158;28;19929;-64
2022/03/21 03:12:11;;;;;;;;;;;;;;;7.20;65.57;101191.25;4997505;28;19924;-65
2022/03/21 03:14:55;;;;;;;;;;;;;;;7.21;65.73;101186.97;4997195;28;19984;-64
2022/03/21 03:17:39;;;;;;;;;;;;;;;7.21;65.62;101190.44;4997310;28;19996;-64
2022/03/21 03:20:23;;;;;;;;;;;;;;;7.22;65.55;101197.38;4995885;28;20347;-64
2022/03/21 03:23:07;;;;;;;;;;;;;;;7.23;65.48;101198.25;4996695;28;20423;-64
2022/03/21 03:25:54;;;;;;;;;;;;;;;7.22;65.69;101199.97;4996668;28;19932;-65
2022/03/21 03:28:38;;;;;;;;;;;;;;;7.21;65.64;101198.19;4996610;28;19967;-64
2022/03/21 03:31:22;;;;;;;;;;;;;;;7.19;65.96;101197.22;4996966;28;19964;-65
2022/03/21 03:34:06;;;;;;;;;;;;;;;7.20;65.72;101193.84;4996836;28;19924;-65
2022/03/21 03:36:50;;;;;;;;;;;;;;;7.21;66.03;101197.28;4996839;28;19924;-64
2022/03/21 03:39:34;;;;;;;;;;;;;;;7.20;65.79;101196.41;4995866;28;19925;-64
2022/03/21 03:42:20;;;;;;;;;;;;;;;7.22;65.74;101205.13;4995628;28;20056;-64
2022/03/21 03:45:05;;;;;;;;;;;;;;;7.21;65.74;101202.44;4996671;28;19924;-63
2022/03/21 03:47:49;;;;;;;;;;;;;;;7.20;65.64;101216.16;4995478;28;19940;-64
2022/03/21 03:50:33;;;;;;;;;;;;;;;7.19;65.71;101207.53;4996068;28;19984;-64
2022/03/21 03:53:18;;;;;;;;;;;;;;;7.18;65.75;101207.44;4996827;28;20293;-64
2022/03/21 03:56:02;;;;;;;;;;;;;;;7.19;65.69;101217.84;4996322;28;19924;-65
2022/03/21 03:58:45;;;;;;;;;;;;;;;7.18;65.81;101210.94;4996533;28;20396;-64
2022/03/21 04:01:29;;;;;;;;;;;;;;;7.17;65.63;101224.63;4996483;28;20392;-64
2022/03/21 04:04:13;;;;;;;;;;;;;;;7.16;65.89;101226.31;4996511;28;20025;-64
2022/03/21 04:06:57;;;;;;;;;;;;;;;7.15;65.79;101221.97;4996200;28;19971;-64
2022/03/21 04:09:41;;;;;;;;;;;;;;;7.13;65.74;101217.53;4996139;28;19924;-64
2022/03/21 04:12:25;;;;;;;;;;;;;;;7.13;65.96;101213.28;4996071;28;19924;-64
2022/03/21 04:15:09;;;;;;;;;;;;;;;7.12;66.09;101208.94;4996191;28;19964;-64
2022/03/21 04:17:57;;;;;;;;;;;;;;;7.11;66.14;101207.16;4995972;28;19925;-64
2022/03/21 04:20:42;;;;;;;;;;;;;;;7.12;65.91;101221.81;4995806;28;20029;-64
2022/03/21 04:23:26;;;;;;;;;;;;;;;7.13;65.89;101223.59;4995375;28;19928;-65
2022/03/21 04:26:12;;;;;;;;;;;;;;;7.12;66.27;101215.78;4995449;28;19972;-64
2022/03/21 04:28:55;;;;;;;;;;;;;;;7.10;65.94;101217.38;4996167;28;19924;-63
2022/03/21 04:31:39;;;;;;;;;;;;;;;7.09;66.11;101221.69;4994651;28;20012;-65
2022/03/21 04:34:23;;;;;;;;;;;;;;;7.09;66.24;101215.63;4995954;28;20333;-65
2022/03/21 04:37:07;;;;;;;;;;;;;;;7.08;66.03;101225.06;4995892;28;19925;-64
2022/03/21 04:39:51;;;;;;;;;;;;;;;7.07;66.08;101227.56;4995107;28;19972;-63
2022/03/21 04:42:36;;;;;;;;;;;;;;;7.09;66.04;101223.34;4995037;28;19925;-63
2022/03/21 04:45:20;;;;;;;;;;;;;;;7.09;66.27;101216.53;4994650;28;20360;-64
2022/03/21 04:48:05;;;;;;;;;;;;;;;7.08;66.37;101224.19;4994336;28;19956;-64
2022/03/21 04:50:49;;;;;;;;;;;;;;;7.07;66.37;101231.03;4994096;28;19988;-63
2022/03/21 04:53:33;;;;;;;;;;;;;;;7.09;66.44;101236.25;4996320;28;19939;-64
2022/03/21 04:56:16;;;;;;;;;;;;;;;7.08;66.29;101229.34;4994617;28;19928;-65
2022/03/21 04:59:01;;;;;;;;;;;;;;;7.07;66.60;101230.16;4993731;28;19984;-65
2022/03/21 05:01:44;;;;;;;;;;;;;;;7.09;66.32;101234.56;4993955;28;19941;-64
2022/03/21 05:04:29;;;;;;;;;;;;;;;7.09;66.60;101236.25;4995182;28;19924;-64
2022/03/21 05:07:16;;;;;;;;;;;;;;;7.09;66.35;101231.97;4994815;28;19925;-64
2022/03/21 05:10:00;;;;;;;;;;;;;;;7.10;66.31;101240.59;4994000;28;20452;-64
2022/03/21 05:12:44;;;;;;;;;;;;;;;7.09;66.73;101231.97;4995494;28;20021;-64
2022/03/21 05:15:28;;;;;;;;;;;;;;;7.11;66.68;101237.19;4995029;28;20277;-64
2022/03/21 05:18:12;;;;;;;;;;;;;;;7.10;66.40;101238.91;4994693;28;19968;-64
2022/03/21 05:20:56;;;;;;;;;;;;;;;7.10;66.41;101240.59;4994149;28;19925;-63
2022/03/21 05:35:52;;;;;;;;;;;;;;;7.09;66.41;101242.28;4994892;28;19925;-64
2022/03/21 05:35:54;;;;;;;;;;;;;;;7.08;66.54;101242.22;4994779;28;19924;-64
2022/03/21 05:38:38;;;;;;;;;;;;;;;7.09;66.73;101251.72;4993799;28;19968;-64
2022/03/21 05:41:22;;;;;;;;;;;;;;;7.07;66.58;101249.06;4995005;28;19925;-64
2022/03/21 05:44:07;;;;;;;;;;;;;;;7.07;66.44;101251.66;4994574;28;19924;-64
2022/03/21 05:46:51;;;;;;;;;;;;;;;7.07;66.45;101251.66;4994736;28;20293;-64
2022/03/21 05:49:35;;;;;;;;;;;;;;;7.06;66.96;101260.19;4994989;28;19924;-64
2022/03/21 05:52:19;;;;;;;;;;;;;;;7.06;66.41;101261.91;4993327;28;19933;-64
2022/03/21 05:55:03;;;;;;;;;;;;;;;7.05;66.47;101263.56;4994953;28;19924;-64
2022/03/21 05:57:47;;;;;;;;;;;;;;;7.05;66.54;101270.44;4994458;28;19929;-64
2022/03/21 06:00:31;;;;;;;;;;;;;;;7.05;66.89;101260.13;4994327;28;19924;-65
2022/03/21 06:03:15;;;;;;;;;;;;;;;7.05;66.72;101267.84;4993930;28;19990;-64
2022/03/21 06:05:59;;;;;;;;;;;;;;;7.02;66.71;101273.72;4993360;28;19924;-64
2022/03/21 06:08:43;;;;;;;;;;;;;;;7.01;66.77;101259.06;4993195;28;19940;-64
2022/03/21 06:11:28;;;;;;;;;;;;;;;7.00;66.86;101262.47;4998016;28;19929;-64
2022/03/21 06:14:18;;;;;;;;;;;;;;;7.00;66.58;101273.66;4998499;28;19964;-64
2022/03/21 06:17:02;;;;;;;;;;;;;;;7.00;66.84;101271.09;4997180;28;19967;-64
2022/03/21 06:19:45;;;;;;;;;;;;;;;7.00;66.72;101276.22;4998339;28;20296;-64
2022/03/21 06:22:29;;;;;;;;;;;;;;;7.02;66.76;101273.72;4998663;28;19925;-64
2022/03/21 06:25:13;;;;;;;;;;;;;;;7.01;66.82;101282.25;4997516;28;20033;-65
2022/03/21 06:27:59;;;;;;;;;;;;;;;7.00;66.78;101283.97;4997857;28;20435;-65
2022/03/21 06:30:43;;;;;;;;;;;;;;;6.98;67.12;101285.56;4997393;28;20293;-64
2022/03/21 06:33:28;;;;;;;;;;;;;;;6.97;67.03;101291.53;4998480;28;19960;-64
2022/03/21 06:36:14;;;;;;;;;;;;;;;6.99;66.93;101282.19;4997081;28;19968;-64
2022/03/21 06:38:58;;;;;;;;;;;;;;;6.99;66.78;101282.19;4998364;28;20388;-64
2022/03/21 06:41:43;;;;;;;;;;;;;;;6.99;66.95;101282.19;4997538;28;19925;-65
2022/03/21 06:44:26;;;;;;;;;;;;;;;6.98;66.91;101285.56;4997732;28;20439;-64
2022/03/21 06:47:10;;;;;;;;;;;;;;;6.98;67.15;101290.72;4997809;28;19924;-64
2022/03/21 06:49:54;;;;;;;;;;;;;;;6.98;67.26;101292.44;4997329;28;19972;-64
2022/03/21 06:52:39;;;;;;;;;;;;;;;6.99;66.90;101297.66;4996264;28;19924;-64
2022/03/21 06:55:22;;;;;;;;;;;;;;;7.00;67.16;101296.84;4996441;28;19972;-63
2022/03/21 06:58:11;;;;;;;;;;;;;;;7.01;67.15;101300.31;4997823;28;20392;-63
2022/03/21 07:00:55;;;;;;;;;;;;;;;7.01;67.15;101310.63;4996762;28;19929;-64
2022/03/21 07:03:39;;;;;;;;;;;;;;;7.03;67.40;101302.97;4997419;28;20297;-64
2022/03/21 07:06:23;;;;;;;;;;;;;;;7.02;67.32;101304.66;4997178;28;19925;-64
2022/03/21 07:09:07;;;;;;;;;;;;;;;7.02;67.27;101312.38;4997207;28;20317;-64
2022/03/21 07:11:52;;;;;;;;;;;;;;;7.04;67.41;101310.78;4996975;28;20286;-63
2022/03/21 07:14:36;;;;;;;;;;;;;;;7.04;67.07;101308.19;4997478;28;19923;-65
2022/03/21 07:17:20;;;;;;;;;;;;;;;7.03;67.21;101314.16;4996156;28;20305;-64
2022/03/21 07:20:04;;;;;;;;;;;;;;;7.05;67.22;101314.25;4996635;28;19924;-63
2022/03/21 07:22:48;;;;;;;;;;;;;;;7.05;67.33;101314.25;4996243;28;19940;-64
2022/03/21 07:25:32;;;;;;;;;;;;;;;7.06;67.23;101323.75;4997242;28;19941;-63
2022/03/21 07:28:16;;;;;;;;;;;;;;;7.06;67.19;101316.91;4997106;28;20059;-64
2022/03/21 07:31:00;;;;;;;;;;;;;;;7.07;67.62;101330.69;4997061;28;20064;-64
2022/03/21 07:33:44;;;;;;;;;;;;;;;7.08;67.63;101322.16;4997376;28;19964;-64
2022/03/21 07:36:29;;;;;;;;;;;;;;;7.07;67.26;101331.56;4995707;28;19940;-64
2022/03/21 07:39:14;;;;;;;;;;;;;;;7.07;67.52;101334.13;4997264;28;19971;-64
2022/03/21 07:42:00;;;;;;;;;;;;;;;7.08;67.59;101335.03;4996091;28;20425;-64
2022/03/21 07:47:46;;;;;;;;;;;;;;;7.08;67.62;101333.34;4996681;28;20076;-63
2022/03/21 07:50:31;;;;;;;;;;;;;;;7.09;67.60;101327.38;4995731;28;19941;-64
2022/03/21 07:53:15;;;;;;;;;;;;;;;7.11;67.72;101333.50;4996211;28;20300;-64
2022/03/21 07:56:02;;;;;;;;;;;;;;;7.13;67.74;101334.47;4996296;28;20001;-64
2022/03/21 07:58:46;;;;;;;;;;;;;;;7.14;67.39;101331.09;4996534;28;19925;-64
2022/03/21 08:01:30;;;;;;;;;;;;;;;7.15;67.36;101337.09;4995778;28;20696;-64
2022/03/21 08:04:14;;;;;;;;;;;;;;;7.16;67.53;101344.03;4996822;28;19932;-63
2022/03/21 08:06:59;;;;;;;;;;;;;;;7.17;67.50;101335.50;4995763;28;19924;-64
2022/03/21 08:09:43;;;;;;;;;;;;;;;7.19;67.51;101326.16;4996640;28;19925;-65
2022/03/21 08:12:28;;;;;;;;;;;;;;;7.20;67.71;101327.91;4996657;28;19924;-64
2022/03/21 08:15:12;;;;;;;;;;;;;;;7.22;67.67;101331.47;4995474;28;19924;-63
2022/03/21 08:17:59;;;;;;;;;;;;;;;7.24;67.51;101334.97;4995016;28;19984;-64
2022/03/21 08:20:44;;;;;;;;;;;;;;;7.25;67.93;101344.50;4995606;28;20058;-64
2022/03/21 08:23:28;;;;;;;;;;;;;;;7.27;67.64;101340.28;4996067;28;19972;-65
2022/03/21 08:26:13;;;;;;;;;;;;;;;7.29;67.52;101338.69;4996355;28;19924;-64
2022/03/21 08:28:57;;;;;;;;;;;;;;;7.28;67.96;101339.50;4995072;28;20007;-64
2022/03/21 08:31:41;;;;;;;;;;;;;;;7.30;67.48;101337.00;4995929;28;20293;-64
2022/03/21 08:34:27;;;;;;;;;;;;;;;7.33;67.77;101344.88;4994355;28;19925;-64
2022/03/21 08:37:12;;;;;;;;;;;;;;;7.30;67.69;101337.88;4995666;28;19925;-63
2022/03/21 08:39:55;;;;;;;;;;;;;;;7.33;67.68;101342.28;4994833;28;19964;-64
2022/03/21 08:42:40;;;;;;;;;;;;;;;7.37;67.45;101340.78;4996086;28;19925;-63
2022/03/21 08:45:24;;;;;;;;;;;;;;;7.37;67.61;101341.66;4995203;28;20392;-63
2022/03/21 08:48:10;;;;;;;;;;;;;;;7.41;67.40;101342.69;4994912;28;19925;-64
2022/03/21 08:50:55;;;;;;;;;;;;;;;7.46;67.75;101326.66;4995065;28;19925;-64
2022/03/21 08:53:39;;;;;;;;;;;;;;;7.50;67.71;101332.84;4995505;28;20423;-65
2022/03/21 08:56:28;;;;;;;;;;;;;;;7.51;67.32;101336.28;4995610;28;19971;-64
2022/03/21 08:59:12;;;;;;;;;;;;;;;7.53;67.58;101334.66;4994571;28;19924;-63
2022/03/21 09:01:56;;;;;;;;;;;;;;;7.56;67.62;101333.13;4994438;28;19923;-63
2022/03/21 09:04:40;;;;;;;;;;;;;;;7.59;67.69;101329.81;4994338;28;20427;-64
2022/03/21 09:07:24;;;;;;;;;;;;;;;7.60;67.52;101334.16;4995465;28;20395;-64
2022/03/21 09:10:11;;;;;;;;;;;;;;;7.60;67.68;101329.88;4995590;28;19925;-64
2022/03/21 09:12:55;;;;;;;;;;;;;;;7.62;67.39;101333.44;4994831;28;19924;-64
2022/03/21 09:15:41;;;;;;;;;;;;;;;7.65;67.38;101331.81;4994945;28;19924;-63
2022/03/21 09:18:25;;;;;;;;;;;;;;;7.67;67.74;101338.81;4994751;28;19924;-63
2022/03/21 09:21:09;;;;;;;;;;;;;;;7.70;67.46;101345.81;4995134;28;19932;-63
2022/03/21 09:23:53;;;;;;;;;;;;;;;7.73;67.47;101339.13;4993999;28;20289;-64
2022/03/21 09:26:37;;;;;;;;;;;;;;;7.76;67.46;101335.78;4993982;28;19932;-63
2022/03/21 09:29:21;;;;;;;;;;;;;;;7.78;67.41;101337.63;4994350;28;20304;-63
2022/03/21 09:32:06;;;;;;;;;;;;;;;7.82;67.51;101324.88;4994998;28;20033;-64
2022/03/21 09:34:50;;;;;;;;;;;;;;;7.84;67.53;101331.00;4993837;28;19968;-63
2022/03/21 09:37:34;;;;;;;;;;;;;;;7.84;67.31;101324.16;4995142;28;20290;-65
2022/03/21 09:40:20;;;;;;;;;;;;;;;7.84;67.47;101331.88;4994969;28;19925;-63
2022/03/21 09:43:05;;;;;;;;;;;;;;;7.85;67.45;101332.75;4994106;28;19979;-64
2022/03/21 09:45:51;;;;;;;;;;;;;;;7.84;67.50;101328.41;4993199;28;20017;-63
2022/03/21 09:48:35;;;;;;;;;;;;;;;7.84;67.38;101318.97;4993338;28;19972;-64
2022/03/21 09:51:21;;;;;;;;;;;;;;;7.86;67.62;101327.66;4994810;28;19972;-63
2022/03/21 09:54:05;;;;;;;;;;;;;;;7.88;67.41;101333.78;4993574;28;20007;-64
2022/03/21 09:56:49;;;;;;;;;;;;;;;7.92;67.43;101327.09;4993730;28;19948;-64
2022/03/21 09:59:33;;;;;;;;;;;;;;;7.94;67.28;101330.63;4993392;28;19925;-64
2022/03/21 10:02:17;;;;;;;;;;;;;;;7.96;67.26;101328.97;4994228;28;20320;-64
2022/03/21 10:05:01;;;;;;;;;;;;;;;7.99;67.24;101333.44;4993735;28;19968;-64
2022/03/21 10:07:45;;;;;;;;;;;;;;;8.00;67.28;101335.19;4993322;28;19924;-64
2022/03/21 10:10:29;;;;;;;;;;;;;;;8.00;67.14;101335.19;4993949;28;19955;-65
2022/03/21 10:13:13;;;;;;;;;;;;;;;8.00;67.16;101325.75;4994391;28;20013;-64
2022/03/21 10:16:08;;;;;;;;;;;;;;;8.01;67.14;101334.38;4993773;28;20064;-63
2022/03/21 10:18:52;;;;;;;;;;;;;;;8.03;67.30;101327.56;4993169;28;19956;-64
2022/03/21 10:21:36;;;;;;;;;;;;;;;8.05;67.20;101331.13;4993136;28;19925;-64
2022/03/21 10:24:19;;;;;;;;;;;;;;;8.06;67.17;101328.63;4994041;28;20392;-63
2022/03/21 10:27:04;;;;;;;;;;;;;;;8.07;67.16;101325.22;4994288;28;20016;-64
2022/03/21 10:29:54;;;;;;;;;;;;;;;8.09;67.18;101330.44;4993145;28;20404;-63
2022/03/21 10:32:38;;;;;;;;;;;;;;;8.08;67.07;101332.16;4994188;28;19929;-63
2022/03/21 10:35:26;;;;;;;;;;;;;;;8.10;67.20;101331.34;4993390;28;19924;-63
2022/03/21 10:38:10;;;;;;;;;;;;;;;8.13;67.08;101327.22;4993401;28;19972;-65
2022/03/21 10:40:54;;;;;;;;;;;;;;;8.16;67.03;101326.44;4994364;28;19924;-63
2022/03/21 10:43:52;;;;;;;;;;;;;;;8.18;67.11;101319.66;4993242;28;19940;-64
2022/03/21 10:46:36;;;;;;;;;;;;;;;8.20;67.01;101318.91;4994390;28;19924;-64
2022/03/21 10:49:35;;;;;;;;;;;;;;;8.24;67.19;101319.97;4993642;28;19951;-63
2022/03/21 10:52:22;;;;;;;;;;;;;;;8.25;67.10;101321.72;4994358;28;19925;-63
2022/03/21 10:55:06;;;;;;;;;;;;;;;8.28;67.11;101316.69;4993854;28;19925;-64
2022/03/21 10:57:54;;;;;;;;;;;;;;;8.31;67.22;101315.97;4997717;28;20305;-63
2022/03/21 11:00:38;;;;;;;;;;;;;;;8.33;66.97;101304.88;4996787;28;19924;-63
2022/03/21 11:03:22;;;;;;;;;;;;;;;8.35;66.92;101312.69;4996138;28;19972;-63
2022/03/21 11:06:06;;;;;;;;;;;;;;;8.38;66.92;101307.66;4997749;28;19924;-64
2022/03/21 11:08:54;;;;;;;;;;;;;;;8.41;67.04;101302.63;4997029;28;19972;-64
2022/03/21 11:11:39;;;;;;;;;;;;;;;8.46;66.86;101305.41;4996750;28;19924;-64
2022/03/21 11:14:23;;;;;;;;;;;;;;;8.51;66.99;101296.22;4997327;28;20004;-64
2022/03/21 11:17:07;;;;;;;;;;;;;;;8.56;66.95;101299.91;4996152;28;20396;-64
2022/03/21 11:19:51;;;;;;;;;;;;;;;8.60;66.86;101291.44;4996727;28;19956;-63
2022/03/21 11:22:35;;;;;;;;;;;;;;;8.62;67.01;101289.81;4997067;28;19964;-65
2022/03/21 11:25:21;;;;;;;;;;;;;;;8.65;67.09;101297.72;4995982;28;19924;-64
2022/03/21 11:28:23;;;;;;;;;;;;;;;8.69;67.06;101285.78;4996982;28;19924;-63
2022/03/21 11:31:25;;;;;;;;;;;;;;;8.73;67.09;101295.47;4996260;28;19924;-64
2022/03/21 11:34:20;;;;;;;;;;;;;;;8.76;66.90;101280.09;4996918;28;20483;-63
2022/03/21 11:37:04;;;;;;;;;;;;;;;8.77;66.96;101284.44;4997118;28;19924;-64
2022/03/21 11:39:48;;;;;;;;;;;;;;;8.79;66.92;101281.91;4996717;28;19940;-63
2022/03/21 11:42:33;;;;;;;;;;;;;;;8.81;67.14;101277.69;4996854;28;19988;-64
2022/03/21 11:45:24;;;;;;;;;;;;;;;8.81;66.82;101275.97;4996121;28;19928;-63
2022/03/21 11:48:17;;;;;;;;;;;;;;;8.79;67.01;101277.63;4995664;28;19925;-63
2022/03/21 11:51:01;;;;;;;;;;;;;;;8.80;67.02;101274.22;4997007;28;19925;-63
2022/03/21 11:53:47;;;;;;;;;;;;;;;8.86;66.68;101275.28;4997213;28;19928;-64
2022/03/21 11:56:37;;;;;;;;;;;;;;;8.87;67.06;101271.91;4996180;28;19924;-64
2022/03/21 11:59:33;;;;;;;;;;;;;;;8.88;66.99;101269.38;4996178;28;20440;-64
2022/03/21 12:02:17;;;;;;;;;;;;;;;8.92;66.62;101263.50;4995450;28;20005;-64
2022/03/21 12:05:02;;;;;;;;;;;;;;;8.96;66.93;101270.59;4996156;28;19949;-63
2022/03/21 12:07:46;;;;;;;;;;;;;;;8.96;67.01;101262.81;4994463;28;20388;-64
2022/03/21 12:10:39;;;;;;;;;;;;;;;8.96;66.91;101261.94;4996220;28;20007;-63
2022/03/21 12:13:23;;;;;;;;;;;;;;;8.95;66.96;101260.19;4996151;28;19925;-64
2022/03/21 12:16:20;;;;;;;;;;;;;;;8.95;66.86;101262.78;4996146;28;19968;-63
2022/03/21 12:19:05;;;;;;;;;;;;;;;8.94;66.75;101258.44;4995483;28;20387;-63
2022/03/21 12:22:08;;;;;;;;;;;;;;;8.95;66.79;101252.44;4995979;28;19988;-64
2022/03/21 12:24:53;;;;;;;;;;;;;;;8.95;67.00;101250.72;4996210;28;20445;-64
2022/03/21 12:27:38;;;;;;;;;;;;;;;8.94;66.74;101246.38;4996027;28;20060;-64
2022/03/21 12:30:23;;;;;;;;;;;;;;;8.95;66.76;101249.84;4996151;28;19925;-64
2022/03/21 12:33:11;;;;;;;;;;;;;;;8.94;66.93;101242.91;4996315;28;19968;-64
2022/03/21 12:35:56;;;;;;;;;;;;;;;8.92;66.73;101242.81;4995714;28;19956;-64
2022/03/21 12:38:40;;;;;;;;;;;;;;;8.91;66.85;101243.66;4994918;28;19968;-65
2022/03/21 12:41:31;;;;;;;;;;;;;;;8.91;66.73;101245.34;4995646;28;20344;-64
2022/03/21 12:44:15;;;;;;;;;;;;;;;8.95;67.04;101248.13;4995945;28;19960;-64
2022/03/21 12:47:01;;;;;;;;;;;;;;;8.97;67.08;101251.66;4995269;28;19940;-64
2022/03/21 12:49:48;;;;;;;;;;;;;;;9.00;67.07;101248.31;4994586;28;20007;-64
2022/03/21 12:52:34;;;;;;;;;;;;;;;9.03;66.97;101240.69;4995221;28;19925;-65
2022/03/21 12:55:17;;;;;;;;;;;;;;;9.04;66.74;101238.97;4994873;28;19971;-64
2022/03/21 12:58:03;;;;;;;;;;;;;;;9.04;66.61;101233.81;4995517;28;19968;-64
2022/03/21 13:00:48;;;;;;;;;;;;;;;9.04;67.05;101233.81;4995774;28;19924;-64
2022/03/21 13:03:32;;;;;;;;;;;;;;;9.03;66.82;101239.81;4994550;28;20008;-64
2022/03/21 13:12:23;;;;;;;;;;;;;;;9.03;66.82;101238.09;4995319;28;19922;-64
2022/03/21 13:15:08;;;;;;;;;;;;;;;9.07;66.77;101237.41;4993999;28;19932;-65
2022/03/21 13:17:57;;;;;;;;;;;;;;;9.08;66.75;101233.13;4994980;28;20052;-64
2022/03/21 13:20:45;;;;;;;;;;;;;;;9.10;66.69;101237.56;4993604;28;20045;-64
2022/03/21 13:23:30;;;;;;;;;;;;;;;9.10;66.76;101224.63;4994821;28;19971;-64
2022/03/21 13:26:15;;;;;;;;;;;;;;;9.11;66.74;101225.50;4994567;28;19960;-64
2022/03/21 13:29:05;;;;;;;;;;;;;;;9.12;66.84;101217.78;4994184;28;19924;-64
2022/03/21 13:31:53;;;;;;;;;;;;;;;9.12;66.68;101222.09;4994147;28;19980;-63
2022/03/21 13:34:38;;;;;;;;;;;;;;;9.11;66.95;101228.94;4994368;28;19968;-63
2022/03/21 13:37:23;;;;;;;;;;;;;;;9.10;66.81;101223.72;4994059;28;19924;-64
2022/03/21 13:40:07;;;;;;;;;;;;;;;9.10;66.90;101215.97;4993328;28;19948;-65
2022/03/21 13:42:51;;;;;;;;;;;;;;;9.11;66.92;101221.19;4994143;28;19983;-64
2022/03/21 13:45:42;;;;;;;;;;;;;;;9.11;67.03;101216.00;4994241;28;19964;-64
2022/03/21 13:48:33;;;;;;;;;;;;;;;9.12;66.82;101215.19;4993676;28;19924;-64
2022/03/21 13:51:21;;;;;;;;;;;;;;;9.12;66.88;101214.31;4994460;28;19968;-64
2022/03/21 13:54:09;;;;;;;;;;;;;;;9.13;66.78;101209.22;4993709;28;20399;-64
2022/03/21 13:56:55;;;;;;;;;;;;;;;9.13;66.77;101204.03;4993885;28;20447;-64
2022/03/21 13:59:40;;;;;;;;;;;;;;;9.12;66.88;101197.09;4994925;28;19925;-64
2022/03/21 14:02:24;;;;;;;;;;;;;;;9.12;66.87;101203.97;4993255;28;19925;-64
2022/03/21 14:05:21;;;;;;;;;;;;;;;9.12;66.97;101199.69;4993620;28;19929;-64
2022/03/21 14:08:18;;;;;;;;;;;;;;;9.12;66.78;101197.09;4994106;28;20476;-64
2022/03/21 14:11:02;;;;;;;;;;;;;;;9.16;66.93;101192.03;4994348;28;19924;-64
2022/03/21 14:13:52;;;;;;;;;;;;;;;9.17;66.82;101194.72;4993682;28;19980;-64
2022/03/21 14:16:37;;;;;;;;;;;;;;;9.18;66.99;101187.81;4993721;28;19924;-64
2022/03/21 14:19:20;;;;;;;;;;;;;;;9.20;66.89;101196.53;4993339;28;20391;-64
2022/03/21 14:22:04;;;;;;;;;;;;;;;9.18;67.06;101187.81;4994219;28;19925;-64
2022/03/21 14:24:48;;;;;;;;;;;;;;;9.19;66.73;101189.59;4994344;28;20353;-64
2022/03/21 14:27:32;;;;;;;;;;;;;;;9.18;66.75;101186.13;4992959;28;19924;-63
2022/03/21 14:30:16;;;;;;;;;;;;;;;9.17;66.89;101186.97;4993820;28;19999;-64
2022/03/21 14:33:00;;;;;;;;;;;;;;;9.18;67.14;101186.13;4997892;28;19968;-64
2022/03/21 14:35:44;;;;;;;;;;;;;;;9.18;66.93;101183.56;4998257;28;19924;-64
2022/03/21 14:38:28;;;;;;;;;;;;;;;9.17;67.00;101174.03;4997389;28;19948;-65
2022/03/21 14:41:20;;;;;;;;;;;;;;;9.17;66.93;101173.13;4997703;28;20048;-64
2022/03/21 14:44:04;;;;;;;;;;;;;;;9.16;66.87;101179.13;4997242;28;20044;-65